Time;durP1;ratioP1;P1;durP2;ratioP2;P2;SDS_P1;SDS_P2;PMS_P1;PMS_P2;Temp;Humidity;BMP_temperature;BMP_pressure;BME280_temperature;BME280_humidity;BME280_pressure;Samples;Min_cycle;Max_cycle;Signal;HPM_P1;HPM_P2
2022/08/05 00:01:17;;;;;;;11.53;5.60;;;25.70;90.40;;;;;;4956294;29;20438;-93
2022/08/05 00:03:43;;;;;;;7.47;5.30;;;25.60;90.20;;;;;;4957707;28;20442;-93
2022/08/05 00:06:09;;;;;;;8.93;5.50;;;25.60;90.20;;;;;;4959259;29;20467;-90
2022/08/05 00:08:36;;;;;;;8.63;5.47;;;25.60;90.30;;;;;;4963728;29;20481;-94
2022/08/05 00:11:06;;;;;;;9.53;5.30;;;25.50;90.00;;;;;;4957132;28;20522;-91
2022/08/05 00:13:34;;;;;;;6.60;5.37;;;25.50;89.80;;;;;;4955487;29;20493;-90
2022/08/05 00:15:59;;;;;;;11.00;5.70;;;25.50;89.70;;;;;;4955954;28;20473;-90
2022/08/05 00:18:25;;;;;;;7.37;5.50;;;25.40;90.00;;;;;;4955746;28;20944;-90
2022/08/05 00:20:51;;;;;;;6.53;4.97;;;25.40;90.10;;;;;;4956240;28;20232;-94
2022/08/05 00:23:18;;;;;;;7.13;5.67;;;25.30;90.10;;;;;;4956755;28;20900;-90
2022/08/05 00:25:44;;;;;;;8.97;5.13;;;25.30;90.30;;;;;;4956795;29;20838;-94
2022/08/05 00:28:10;;;;;;;5.30;4.80;;;25.30;90.40;;;;;;4956897;29;20423;-90
2022/08/05 00:30:35;;;;;;;6.63;5.20;;;25.20;90.30;;;;;;4957366;28;20243;-90
2022/08/05 00:33:01;;;;;;;6.40;5.00;;;25.20;90.30;;;;;;4959981;28;20184;-93
2022/08/05 00:35:27;;;;;;;7.57;5.63;;;25.20;90.30;;;;;;4959106;29;20211;-91
2022/08/05 00:37:52;;;;;;;6.80;4.90;;;25.20;90.30;;;;;;4956268;28;20384;-92
2022/08/05 00:40:20;;;;;;;6.00;5.30;;;25.20;90.30;;;;;;4959535;28;20196;-93
2022/08/05 00:42:46;;;;;;;7.43;5.10;;;25.10;90.30;;;;;;4958580;28;20200;-91
2022/08/05 00:45:11;;;;;;;8.80;6.07;;;25.10;90.30;;;;;;4959323;28;20568;-90
2022/08/05 00:47:37;;;;;;;7.30;5.40;;;25.10;90.50;;;;;;4942765;29;20278;-90
2022/08/05 00:50:03;;;;;;;6.83;5.67;;;25.00;90.50;;;;;;4943122;29;20203;-93
2022/08/05 00:52:35;;;;;;;6.83;5.77;;;25.00;90.40;;;;;;4945384;29;20460;-93
2022/08/05 00:55:01;;;;;;;6.70;5.67;;;25.00;90.50;;;;;;4960619;28;20421;-90
2022/08/05 00:57:26;;;;;;;8.20;5.07;;;25.00;90.60;;;;;;4944780;29;20528;-91
2022/08/05 00:59:52;;;;;;;6.10;5.50;;;24.90;90.60;;;;;;4960434;28;20472;-93
2022/08/05 01:02:18;;;;;;;5.87;4.80;;;24.90;90.60;;;;;;4943437;29;20274;-91
2022/08/05 01:04:44;;;;;;;6.70;5.50;;;24.90;90.60;;;;;;4948423;29;20206;-94
2022/08/05 01:07:09;;;;;;;5.83;5.30;;;24.80;90.60;;;;;;4941896;29;20196;-89
2022/08/05 01:17:32;;;;;;;6.50;5.40;;;24.70;91.10;;;;;;4825656;29;20525;-93
2022/08/05 01:20:34;;;;;;;6.47;5.60;;;24.60;91.10;;;;;;4849316;28;20449;-93
2022/08/05 01:23:37;;;;;;;8.33;5.63;;;24.60;91.20;;;;;;4960197;29;20439;-90
2022/08/05 01:26:46;;;;;;;6.20;4.80;;;24.50;91.10;;;;;;4943224;29;20488;-89
2022/08/05 01:29:15;;;;;;;6.03;5.43;;;24.50;91.10;;;;;;4943490;29;20463;-91
2022/08/05 01:31:45;;;;;;;7.07;5.53;;;24.40;91.20;;;;;;4944166;29;20418;-89
2022/08/05 01:34:35;;;;;;;5.90;5.30;;;24.40;91.30;;;;;;4945401;29;20519;-93
2022/08/05 01:37:38;;;;;;;6.40;5.80;;;24.40;91.50;;;;;;4944871;29;20816;-91
2022/08/05 01:40:06;;;;;;;6.17;5.20;;;24.30;91.60;;;;;;4945502;29;20467;-90
2022/08/05 01:42:33;;;;;;;8.93;5.37;;;24.30;91.60;;;;;;4958569;29;20433;-90
2022/08/05 01:45:00;;;;;;;7.13;5.40;;;24.20;91.70;;;;;;4957903;28;20531;-90
2022/08/05 01:47:29;;;;;;;6.37;5.80;;;24.20;91.70;;;;;;4941351;29;20976;-91
2022/08/05 01:49:57;;;;;;;6.07;5.40;;;24.20;91.90;;;;;;4940657;29;20543;-90
2022/08/05 01:52:24;;;;;;;8.57;6.20;;;24.20;92.00;;;;;;4959277;29;20429;-90
2022/08/05 01:54:55;;;;;;;6.47;5.67;;;24.10;92.00;;;;;;4960949;28;20440;-93
2022/08/05 01:57:34;;;;;;;6.93;5.20;;;24.10;92.00;;;;;;4958681;29;20476;-90
2022/08/05 02:00:15;;;;;;;9.50;6.20;;;24.10;92.00;;;;;;4958491;29;20527;-93
2022/08/05 02:02:49;;;;;;;6.30;5.40;;;24.10;92.10;;;;;;4941587;29;20424;-93
2022/08/05 02:05:16;;;;;;;11.07;6.53;;;24.10;92.10;;;;;;4941485;29;20496;-94
2022/08/05 02:07:43;;;;;;;6.80;5.90;;;24.10;92.10;;;;;;4959615;28;20418;-93
2022/08/05 02:10:10;;;;;;;6.77;5.20;;;24.00;92.20;;;;;;4943375;29;20447;-90
2022/08/05 02:12:52;;;;;;;7.93;5.80;;;24.00;92.20;;;;;;4959598;29;20769;-93
2022/08/05 02:15:26;;;;;;;5.90;5.40;;;24.00;92.30;;;;;;4942215;29;20451;-90
2022/08/05 02:18:03;;;;;;;7.67;6.20;;;24.00;92.40;;;;;;4958718;29;20422;-93
2022/08/05 02:20:37;;;;;;;7.03;6.03;;;23.90;92.50;;;;;;4943299;29;20452;-93
2022/08/05 02:23:09;;;;;;;7.80;6.07;;;23.90;92.60;;;;;;4942152;29;20492;-91
2022/08/05 02:25:37;;;;;;;7.77;6.60;;;23.80;92.60;;;;;;4940933;29;20579;-90
2022/08/05 02:28:05;;;;;;;9.07;6.37;;;23.80;92.60;;;;;;4952127;29;20559;-90
2022/08/05 02:30:38;;;;;;;7.90;6.43;;;23.80;92.60;;;;;;4968094;28;20421;-90
2022/08/05 02:33:06;;;;;;;7.60;6.23;;;23.80;92.60;;;;;;4965165;29;20414;-94
2022/08/05 02:35:34;;;;;;;6.60;5.90;;;23.70;92.70;;;;;;4940310;29;20552;-90
2022/08/05 02:38:00;;;;;;;7.43;5.97;;;23.70;92.80;;;;;;4941043;29;20431;-93
2022/08/05 02:40:39;;;;;;;7.80;5.90;;;23.60;92.90;;;;;;4942910;29;20482;-90
2022/08/05 02:43:05;;;;;;;9.23;6.30;;;23.60;93.00;;;;;;4941597;29;20801;-90
2022/08/05 02:45:59;;;;;;;6.87;6.20;;;23.60;93.20;;;;;;4941011;28;20499;-90
2022/08/05 02:48:49;;;;;;;8.40;6.40;;;23.50;93.20;;;;;;4883037;29;20986;-94
2022/08/05 02:51:21;;;;;;;10.57;6.40;;;23.50;93.10;;;;;;4899014;29;20919;-93
2022/08/05 02:53:51;;;;;;;9.43;6.40;;;23.50;93.00;;;;;;4898842;29;20458;-89
2022/08/05 02:56:20;;;;;;;9.00;6.13;;;23.50;93.00;;;;;;4898537;29;20434;-93
2022/08/05 03:04:18;;;;;;;6.57;5.97;;;23.30;93.00;;;;;;5024856;28;20474;-90
2022/08/05 03:06:45;;;;;;;7.97;6.80;;;23.30;93.00;;;;;;5017372;28;20482;-90
2022/08/05 03:09:15;;;;;;;6.60;6.00;;;23.30;93.10;;;;;;5017448;28;20416;-90
2022/08/05 03:11:47;;;;;;;6.23;5.53;;;23.20;93.20;;;;;;5017568;28;20416;-93
2022/08/05 03:14:29;;;;;;;8.47;7.03;;;23.30;93.30;;;;;;5017859;28;20412;-90
2022/08/05 03:16:58;;;;;;;8.30;6.10;;;23.30;93.30;;;;;;5035520;28;20511;-93
2022/08/05 03:19:27;;;;;;;9.13;6.20;;;23.30;93.30;;;;;;5017312;28;20428;-90
2022/08/05 03:22:33;;;;;;;8.23;5.97;;;23.30;93.20;;;;;;5034755;28;20809;-93
2022/08/05 03:25:08;;;;;;;6.80;6.17;;;23.30;93.20;;;;;;5012429;28;20447;-93
2022/08/05 03:27:48;;;;;;;8.73;6.20;;;23.40;93.20;;;;;;5020152;28;20562;-93
2022/08/05 03:30:14;;;;;;;6.63;5.93;;;23.40;93.50;;;;;;5019152;28;20839;-94
2022/08/05 03:32:40;;;;;;;10.80;6.53;;;23.40;93.20;;;;;;5036491;28;20422;-88
2022/08/05 03:35:07;;;;;;;11.17;6.10;;;23.40;93.20;;;;;;5017989;28;20214;-90
2022/08/05 03:37:34;;;;;;;7.77;6.60;;;23.40;93.20;;;;;;5019197;28;20465;-90
2022/08/05 03:40:22;;;;;;;10.13;6.50;;;23.40;93.20;;;;;;5019235;28;20764;-90
2022/08/05 03:42:50;;;;;;;11.10;7.60;;;23.30;93.30;;;;;;5020598;28;20451;-93
2022/08/05 03:45:24;;;;;;;66.77;34.10;;;23.30;93.30;;;;;;5022391;28;20470;-94
2022/08/05 03:48:05;;;;;;;17.87;12.27;;;23.20;93.40;;;;;;5029315;28;20423;-90
2022/08/05 03:50:59;;;;;;;11.50;8.77;;;23.20;93.50;;;;;;5044492;28;20439;-90
2022/08/05 03:53:37;;;;;;;8.93;7.40;;;23.10;93.40;;;;;;5039810;28;20460;-93
2022/08/05 03:56:34;;;;;;;9.13;8.07;;;23.10;93.40;;;;;;5042026;28;20459;-90
2022/08/05 03:59:22;;;;;;;8.50;7.43;;;23.10;93.50;;;;;;5043016;28;21065;-90
2022/08/05 04:01:52;;;;;;;12.10;7.00;;;23.10;93.60;;;;;;5019743;28;20415;-89
2022/08/05 04:04:20;;;;;;;8.10;6.53;;;23.10;93.80;;;;;;5016592;28;20478;-90
2022/08/05 04:06:46;;;;;;;9.80;7.37;;;23.10;93.80;;;;;;5033993;28;20495;-89
2022/08/05 04:09:12;;;;;;;9.93;7.87;;;23.10;93.90;;;;;;5016621;28;20440;-93
2022/08/05 04:11:38;;;;;;;12.73;7.40;;;23.10;93.90;;;;;;5016572;28;20554;-91
2022/08/05 04:14:06;;;;;;;11.20;7.27;;;23.20;94.30;;;;;;5020289;28;20465;-90
2022/08/05 04:16:34;;;;;;;8.43;6.60;;;23.20;94.00;;;;;;5037208;28;20478;-89
2022/08/05 04:19:00;;;;;;;10.30;7.10;;;23.30;93.80;;;;;;5017151;28;20437;-93
2022/08/05 04:21:26;;;;;;;10.17;7.53;;;23.30;93.80;;;;;;5039074;28;20439;-90
2022/08/05 04:23:58;;;;;;;8.43;7.63;;;23.30;93.70;;;;;;5023917;28;20423;-93
2022/08/05 04:26:26;;;;;;;9.40;6.93;;;23.30;93.70;;;;;;5039895;28;20457;-93
2022/08/05 04:28:52;;;;;;;10.60;6.73;;;23.30;93.80;;;;;;5021251;28;21003;-90
2022/08/05 04:31:18;;;;;;;10.60;7.30;;;23.30;93.90;;;;;;5020462;28;20427;-90
2022/08/05 04:33:44;;;;;;;12.33;7.37;;;23.30;93.90;;;;;;5038639;28;20593;-90
2022/08/05 04:36:10;;;;;;;7.87;7.07;;;23.30;93.80;;;;;;5038665;28;20420;-93
2022/08/05 04:38:36;;;;;;;12.43;6.40;;;23.30;93.80;;;;;;5039236;28;20176;-92
2022/08/05 04:41:01;;;;;;;7.33;6.10;;;23.30;94.00;;;;;;5039391;28;20320;-90
2022/08/05 04:43:27;;;;;;;100.90;57.37;;;23.30;93.80;;;;;;5021975;28;20459;-89
2022/08/05 04:45:53;;;;;;;28.83;17.50;;;23.30;93.90;;;;;;5025553;28;20214;-92
2022/08/05 04:48:18;;;;;;;17.67;9.67;;;23.30;93.70;;;;;;5028237;28;20166;-90
2022/08/05 04:50:48;;;;;;;9.23;6.77;;;23.40;93.70;;;;;;5039421;28;20207;-93
2022/08/05 04:53:16;;;;;;;10.73;7.30;;;23.40;93.60;;;;;;5019754;28;20186;-90
2022/08/05 04:55:42;;;;;;;11.33;7.07;;;23.50;93.50;;;;;;5020333;28;20432;-90
2022/08/05 04:58:11;;;;;;;7.63;6.60;;;23.50;93.40;;;;;;5020766;28;20550;-90
2022/08/05 05:00:37;;;;;;;8.27;6.00;;;23.60;93.40;;;;;;5020397;28;20437;-92
2022/08/05 05:03:05;;;;;;;7.70;6.37;;;23.60;93.30;;;;;;5019015;28;20419;-93
2022/08/05 05:05:31;;;;;;;9.67;5.97;;;23.70;93.20;;;;;;5017173;28;20550;-92
2022/08/05 05:08:08;;;;;;;14.63;6.03;;;23.70;93.10;;;;;;5016902;28;20448;-93
2022/08/05 05:10:42;;;;;;;9.07;5.97;;;23.80;93.10;;;;;;5034131;28;21018;-89
2022/08/05 05:13:13;;;;;;;14.07;6.50;;;23.80;93.00;;;;;;5016707;28;20464;-90
2022/08/05 05:15:40;;;;;;;6.57;5.87;;;23.90;93.00;;;;;;5035320;28;20978;-92
2022/08/05 05:18:05;;;;;;;7.00;5.47;;;24.00;93.00;;;;;;5015991;28;20436;-89
2022/08/05 05:20:32;;;;;;;8.60;5.67;;;24.00;92.90;;;;;;5022461;28;20494;-93
2022/08/05 05:22:58;;;;;;;8.00;5.30;;;24.10;93.00;;;;;;5032214;28;20710;-91
2022/08/05 05:25:25;;;;;;;6.50;5.23;;;24.10;92.90;;;;;;5035486;28;20469;-92
2022/08/05 05:27:51;;;;;;;8.67;5.80;;;24.20;92.90;;;;;;5016693;28;20457;-90
2022/08/05 05:30:50;;;;;;;;;;;;;;;;;;;;;
2022/08/05 05:33:16;;;;;;;6.03;5.43;;;24.30;93.00;;;;;;4970416;28;20651;-91
2022/08/05 05:35:43;;;;;;;8.03;6.27;;;24.40;93.00;;;;;;5014772;28;20900;-93
2022/08/05 05:38:09;;;;;;;10.13;5.70;;;24.50;92.90;;;;;;5019467;28;20410;-92
2022/08/05 05:40:35;;;;;;;10.10;5.80;;;24.60;92.80;;;;;;5022780;28;20532;-90
2022/08/05 05:43:01;;;;;;;6.20;5.60;;;24.60;92.70;;;;;;5035097;28;20259;-90
2022/08/05 05:45:26;;;;;;;7.27;5.87;;;24.70;92.70;;;;;;5024226;28;20219;-92
2022/08/05 05:47:52;;;;;;;6.70;5.50;;;24.70;92.20;;;;;;5040651;28;20193;-89
2022/08/05 05:50:18;;;;;;;7.10;5.70;;;24.80;92.20;;;;;;5026254;28;20209;-92
2022/08/05 05:52:45;;;;;;;5.40;4.37;;;24.90;92.30;;;;;;5035451;28;20183;-90
2022/08/05 05:55:12;;;;;;;5.47;4.67;;;25.00;92.20;;;;;;5038045;28;20456;-92
2022/08/05 05:57:40;;;;;;;5.90;5.30;;;25.10;92.00;;;;;;5006638;28;20438;-90
2022/08/05 06:00:12;;;;;;;6.40;5.00;;;25.20;91.40;;;;;;5041108;28;20467;-91
2022/08/05 06:02:38;;;;;;;5.07;4.57;;;25.20;91.30;;;;;;5050309;28;20473;-90
2022/08/05 06:05:07;;;;;;;6.27;5.50;;;25.30;91.20;;;;;;5038370;28;20441;-90
2022/08/05 06:07:32;;;;;;;11.10;5.33;;;25.40;91.30;;;;;;5026263;28;20492;-92
2022/08/05 06:09:58;;;;;;;5.10;4.50;;;25.50;91.10;;;;;;5018583;28;20459;-93
2022/08/05 06:12:24;;;;;;;5.40;4.80;;;25.60;91.10;;;;;;5004160;28;20183;-92
2022/08/05 06:14:49;;;;;;;7.17;5.03;;;25.70;91.00;;;;;;5006582;28;20209;-90
2022/08/05 06:17:15;;;;;;;4.37;4.07;;;25.80;90.80;;;;;;5022390;28;20190;-91
2022/08/05 06:19:41;;;;;;;5.10;4.60;;;25.80;90.80;;;;;;5026515;28;20209;-93
2022/08/05 06:22:07;;;;;;;6.47;4.60;;;25.90;91.00;;;;;;5018393;28;20186;-90
2022/08/05 06:24:34;;;;;;;7.57;5.00;;;26.00;90.30;;;;;;5036229;28;20198;-92
2022/08/05 06:27:00;;;;;;;5.50;4.60;;;26.10;90.20;;;;;;5035885;28;20573;-91
2022/08/05 06:29:29;;;;;;;4.20;3.90;;;26.20;90.50;;;;;;5018623;28;20455;-90
2022/08/05 06:31:54;;;;;;;4.10;3.70;;;26.30;90.50;;;;;;5017338;28;20404;-90
2022/08/05 06:34:20;;;;;;;5.13;4.10;;;26.40;90.40;;;;;;5019908;28;20444;-90
2022/08/05 06:36:46;;;;;;;3.97;3.60;;;26.50;90.00;;;;;;5016430;28;20190;-93
2022/08/05 06:39:11;;;;;;;7.23;4.30;;;26.60;88.30;;;;;;5013473;28;20178;-93
2022/08/05 06:41:37;;;;;;;6.33;4.40;;;26.70;87.50;;;;;;5013633;28;20162;-92
2022/08/05 06:44:03;;;;;;;8.27;4.40;;;26.80;87.40;;;;;;5011889;28;20268;-93
2022/08/05 06:46:29;;;;;;;4.60;4.20;;;26.90;88.30;;;;;;5012013;28;20506;-92
2022/08/05 06:48:54;;;;;;;5.83;4.40;;;27.00;88.60;;;;;;5012695;28;20519;-93
2022/08/05 06:51:20;;;;;;;4.50;4.10;;;27.10;88.20;;;;;;5012386;28;20833;-90
2022/08/05 06:53:46;;;;;;;7.70;4.07;;;27.10;87.00;;;;;;5015008;28;20183;-92
2022/08/05 06:56:12;;;;;;;24.63;6.47;;;27.30;88.40;;;;;;5028395;28;20707;-94
2022/08/05 06:58:37;;;;;;;94.60;14.27;;;27.30;87.50;;;;;;5030005;28;20182;-91
2022/08/05 07:01:05;;;;;;;34.97;8.93;;;27.40;88.80;;;;;;5013438;28;20202;-94
2022/08/05 07:03:31;;;;;;;3.30;3.10;;;27.50;87.00;;;;;;5031275;28;20206;-90
2022/08/05 07:05:57;;;;;;;3.60;3.10;;;27.60;83.60;;;;;;5030632;28;21003;-91
2022/08/05 07:08:23;;;;;;;5.10;3.60;;;27.70;82.40;;;;;;5030828;28;20436;-93
2022/08/05 07:10:50;;;;;;;4.37;3.40;;;27.80;81.80;;;;;;5031179;28;20190;-92
2022/08/05 07:18:44;;;;;;;4.53;3.77;;;28.20;84.30;;;;;;5032899;28;20426;-92
2022/08/05 07:21:10;;;;;;;5.43;3.90;;;28.20;83.70;;;;;;5033738;28;20432;-93
2022/08/05 07:23:36;;;;;;;6.70;3.80;;;28.30;84.90;;;;;;5034962;28;20183;-92
2022/08/05 07:26:03;;;;;;;3.73;3.43;;;28.40;83.30;;;;;;5015968;28;20596;-94
2022/08/05 07:28:28;;;;;;;4.23;3.87;;;28.40;84.60;;;;;;5021478;28;20253;-91
2022/08/05 07:30:55;;;;;;;9.57;7.30;;;28.50;85.00;;;;;;5013615;28;20436;-92
2022/08/05 07:33:21;;;;;;;3.73;3.43;;;28.50;84.00;;;;;;5013413;28;20182;-92
2022/08/05 07:35:47;;;;;;;3.87;3.43;;;28.60;82.50;;;;;;5029415;28;20419;-93
2022/08/05 07:38:13;;;;;;;2.97;2.77;;;28.80;81.10;;;;;;5010684;28;20191;-93
2022/08/05 07:40:43;;;;;;;3.77;3.33;;;28.90;80.90;;;;;;5016957;28;20454;-92
2022/08/05 07:43:09;;;;;;;3.37;3.07;;;29.00;82.20;;;;;;5014862;28;20433;-91
2022/08/05 07:45:35;;;;;;;4.93;3.07;;;29.00;81.80;;;;;;5014413;28;20472;-92
2022/08/05 07:48:01;;;;;;;2.87;2.67;;;29.10;79.70;;;;;;5034426;28;20535;-94
2022/08/05 07:50:26;;;;;;;3.40;2.90;;;29.20;80.10;;;;;;5020597;28;20204;-92
2022/08/05 07:52:52;;;;;;;3.03;2.83;;;29.30;81.50;;;;;;5023431;28;20551;-92
2022/08/05 07:55:18;;;;;;;4.10;2.80;;;29.40;82.40;;;;;;5020581;28;20208;-94
2022/08/05 07:57:44;;;;;;;3.60;3.30;;;29.50;80.60;;;;;;5020311;28;20252;-93
2022/08/05 08:00:13;;;;;;;3.43;2.90;;;29.60;79.60;;;;;;5019579;28;20203;-91
2022/08/05 08:02:39;;;;;;;3.60;3.30;;;29.60;77.80;;;;;;5018439;28;20181;-92
2022/08/05 08:05:05;;;;;;;2.77;2.57;;;29.70;78.30;;;;;;5019716;28;21009;-95
2022/08/05 08:07:34;;;;;;;3.10;2.80;;;29.70;81.00;;;;;;5020007;28;20443;-95
2022/08/05 08:10:00;;;;;;;3.50;3.20;;;29.70;81.50;;;;;;5018058;28;20451;-95
2022/08/05 08:12:26;;;;;;;6.20;4.03;;;29.80;76.10;;;;;;5015241;28;20489;-93
2022/08/05 08:14:51;;;;;;;3.33;3.13;;;29.90;80.10;;;;;;5003542;28;20203;-95
2022/08/05 08:17:18;;;;;;;3.70;3.40;;;29.90;79.70;;;;;;5014305;28;20195;-96
2022/08/05 08:19:44;;;;;;;3.30;3.00;;;30.00;78.30;;;;;;5019146;28;20212;-95
2022/08/05 08:22:10;;;;;;;4.23;3.20;;;30.10;76.30;;;;;;5018453;28;20429;-95
2022/08/05 08:24:37;;;;;;;4.23;3.57;;;30.20;77.70;;;;;;5019938;28;20492;-95
2022/08/05 08:27:07;;;;;;;3.20;3.00;;;30.30;75.90;;;;;;5016940;28;20474;-95
2022/08/05 08:29:32;;;;;;;4.07;3.50;;;30.40;74.90;;;;;;5015729;28;20443;-96
2022/08/05 08:31:58;;;;;;;57.40;40.23;;;30.50;76.60;;;;;;5014547;28;20421;-95
2022/08/05 08:34:25;;;;;;;5.37;4.87;;;30.70;75.00;;;;;;5016829;28;20199;-95
2022/08/05 08:36:51;;;;;;;3.77;3.20;;;30.80;74.50;;;;;;5016326;28;20269;-95
2022/08/05 08:39:32;;;;;;;3.37;3.17;;;30.90;76.10;;;;;;5019012;28;20740;-94
2022/08/05 08:42:00;;;;;;;3.83;3.53;;;30.90;75.10;;;;;;5026409;28;20419;-95
2022/08/05 08:44:30;;;;;;;3.13;2.93;;;31.00;74.10;;;;;;5027883;28;20450;-95
2022/08/05 08:46:56;;;;;;;3.50;3.07;;;31.10;74.00;;;;;;5033150;28;20558;-95
2022/08/05 08:49:26;;;;;;;3.77;3.37;;;31.20;75.10;;;;;;5018720;28;21113;-95
2022/08/05 08:52:10;;;;;;;3.47;3.20;;;31.30;75.10;;;;;;5020100;28;20423;-96
2022/08/05 08:54:35;;;;;;;3.23;2.93;;;31.40;76.10;;;;;;5018430;28;20500;-95
2022/08/05 08:57:01;;;;;;;3.53;3.27;;;31.40;77.60;;;;;;5011509;28;20440;-96
2022/08/05 08:59:27;;;;;;;3.40;3.10;;;31.40;75.60;;;;;;4997192;28;20191;-95
2022/08/05 09:01:53;;;;;;;4.40;3.40;;;31.50;74.70;;;;;;4998402;28;20338;-94
2022/08/05 09:04:20;;;;;;;4.07;3.67;;;31.60;76.00;;;;;;5012372;28;20435;-95
2022/08/05 09:06:46;;;;;;;6.20;3.27;;;31.70;76.60;;;;;;5016909;28;20471;-95
2022/08/05 09:09:12;;;;;;;3.47;3.17;;;31.80;77.20;;;;;;5018099;28;20430;-95
2022/08/05 09:11:37;;;;;;;3.10;2.90;;;31.90;76.40;;;;;;5019722;28;20229;-95
2022/08/05 09:14:07;;;;;;;4.50;3.57;;;31.90;76.50;;;;;;5017861;28;20186;-95
2022/08/05 09:16:32;;;;;;;4.40;3.20;;;32.10;72.80;;;;;;5018725;28;20613;-95
2022/08/05 09:18:58;;;;;;;3.80;3.50;;;32.00;75.10;;;;;;5036643;28;20491;-96
2022/08/05 09:21:27;;;;;;;3.60;3.30;;;32.10;75.90;;;;;;5016805;28;20514;-96
2022/08/05 09:24:07;;;;;;;3.70;3.30;;;32.10;76.40;;;;;;5019985;28;20198;-95
2022/08/05 09:26:36;;;;;;;3.80;3.10;;;32.20;74.60;;;;;;5035640;28;20475;-95
2022/08/05 09:29:05;;;;;;;2.90;2.70;;;32.30;75.90;;;;;;5021706;28;20451;-95
2022/08/05 09:31:32;;;;;;;3.40;3.07;;;32.30;76.00;;;;;;5021543;28;20526;-95
2022/08/05 09:34:01;;;;;;;4.27;3.97;;;32.30;76.10;;;;;;5042724;28;20414;-95
2022/08/05 09:36:53;;;;;;;3.63;3.33;;;32.40;72.40;;;;;;5038579;28;20510;-95
2022/08/05 09:39:19;;;;;;;3.73;3.43;;;32.50;74.60;;;;;;5015764;28;20455;-95
2022/08/05 09:42:00;;;;;;;3.87;3.57;;;32.60;75.30;;;;;;5015200;28;20482;-96
2022/08/05 09:44:39;;;;;;;29.08;3.95;;;32.50;75.50;;;;;;5019952;28;20386;-96
2022/08/05 09:47:11;;;;;;;4.00;3.70;;;32.60;75.70;;;;;;5013935;28;20664;-95
2022/08/05 09:49:47;;;;;;;5.90;3.30;;;32.60;75.60;;;;;;5014693;28;20440;-95
2022/08/05 09:52:36;;;;;;;3.80;3.50;;;32.50;75.70;;;;;;5011378;28;20974;-95
2022/08/05 09:55:10;;;;;;;3.23;3.00;;;32.60;76.00;;;;;;5000999;28;20453;-94
2022/08/05 09:57:45;;;;;;;3.93;3.63;;;32.50;75.80;;;;;;5019660;28;20419;-95
2022/08/05 10:00:18;;;;;;;4.93;3.37;;;32.50;75.80;;;;;;5021037;28;20482;-95
2022/08/05 10:02:48;;;;;;;3.67;3.37;;;32.50;76.00;;;;;;5015232;28;20431;-95
2022/08/05 10:05:16;;;;;;;3.23;3.03;;;32.50;76.00;;;;;;5013051;28;21042;-95
2022/08/05 10:07:53;;;;;;;3.70;3.40;;;32.50;74.30;;;;;;5019323;28;20442;-96
2022/08/05 10:10:26;;;;;;;5.10;4.03;;;32.60;74.80;;;;;;5028512;28;20443;-95
2022/08/05 10:12:57;;;;;;;3.33;3.10;;;32.50;75.00;;;;;;5026047;28;20542;-94
2022/08/05 10:15:26;;;;;;;3.70;3.40;;;32.60;72.20;;;;;;5016991;28;20431;-95
2022/08/05 10:18:22;;;;;;;3.77;3.47;;;32.60;73.50;;;;;;5018742;28;20466;-96
2022/08/05 10:20:57;;;;;;;4.20;3.40;;;32.60;74.30;;;;;;5002403;28;20440;-95
2022/08/05 10:23:34;;;;;;;8.00;7.03;;;32.70;72.70;;;;;;5020382;28;20415;-96
2022/08/05 10:26:06;;;;;;;46.97;33.80;;;32.70;74.40;;;;;;5036572;28;20534;-95
2022/08/05 10:28:36;;;;;;;10.03;8.57;;;32.70;74.80;;;;;;5017645;28;20466;-94
2022/08/05 10:31:02;;;;;;;5.87;5.27;;;32.80;74.40;;;;;;5015304;28;20489;-96
2022/08/05 10:33:30;;;;;;;4.30;4.00;;;32.80;74.00;;;;;;5032662;28;20424;-96
2022/08/05 10:35:58;;;;;;;4.00;3.70;;;32.80;75.00;;;;;;5016841;28;20260;-96
2022/08/05 10:38:26;;;;;;;6.53;4.30;;;32.90;73.90;;;;;;5015910;28;20526;-95
2022/08/05 10:41:20;;;;;;;5.20;3.40;;;32.80;71.20;;;;;;5034719;28;20424;-94
2022/08/05 10:43:56;;;;;;;4.40;3.90;;;33.00;70.50;;;;;;5032719;28;20451;-95
2022/08/05 10:46:22;;;;;;;5.10;4.00;;;33.00;69.50;;;;;;5017441;28;20897;-95
2022/08/05 10:48:53;;;;;;;3.40;3.20;;;33.10;69.30;;;;;;5017572;28;20428;-93
2022/08/05 10:51:20;;;;;;;3.70;3.40;;;33.10;70.30;;;;;;5035124;28;20473;-96
2022/08/05 10:53:52;;;;;;;4.57;3.90;;;33.10;71.50;;;;;;5016830;28;20943;-95
2022/08/05 10:56:24;;;;;;;4.27;3.80;;;33.10;72.20;;;;;;5022972;28;20515;-94
2022/08/05 10:58:53;;;;;;;4.20;3.90;;;33.10;73.00;;;;;;5026580;28;20443;-95
2022/08/05 11:01:43;;;;;;;5.03;3.67;;;33.10;70.00;;;;;;5015369;28;20561;-94
2022/08/05 11:04:13;;;;;;;3.73;3.43;;;33.20;69.10;;;;;;5019161;28;20488;-95
2022/08/05 11:07:03;;;;;;;4.30;3.90;;;33.30;69.20;;;;;;5021286;28;20470;-95
2022/08/05 11:09:49;;;;;;;3.97;3.67;;;33.30;70.50;;;;;;5034877;28;20467;-96
2022/08/05 11:12:39;;;;;;;3.80;3.40;;;33.30;71.80;;;;;;5026656;28;20451;-96
2022/08/05 11:15:39;;;;;;;3.90;3.60;;;33.30;72.10;;;;;;5032678;28;20917;-95
2022/08/05 11:18:21;;;;;;;7.80;3.77;;;33.40;71.80;;;;;;5017377;28;20974;-94
2022/08/05 11:20:50;;;;;;;5.30;3.60;;;33.40;70.50;;;;;;5017623;28;20450;-95
2022/08/05 11:23:52;;;;;;;4.27;3.97;;;33.40;72.10;;;;;;5024011;28;20534;-95
2022/08/05 11:26:21;;;;;;;3.73;3.43;;;33.50;69.00;;;;;;5013367;28;20537;-94
2022/08/05 11:28:52;;;;;;;5.07;4.50;;;33.60;68.10;;;;;;5021427;28;20507;-95
2022/08/05 11:31:26;;;;;;;5.43;4.90;;;33.60;68.20;;;;;;5009880;28;20882;-93
2022/08/05 11:33:55;;;;;;;3.97;3.40;;;33.60;70.30;;;;;;5020129;28;20451;-95
2022/08/05 11:36:37;;;;;;;3.73;3.50;;;33.60;69.30;;;;;;5018359;28;20478;-92
2022/08/05 11:39:04;;;;;;;3.93;3.53;;;33.70;70.10;;;;;;5027416;28;20481;-96
2022/08/05 11:41:30;;;;;;;5.17;3.57;;;33.60;70.60;;;;;;5018051;28;20862;-95
2022/08/05 11:44:05;;;;;;;4.43;3.97;;;33.70;68.60;;;;;;5019808;28;20475;-95
2022/08/05 11:46:42;;;;;;;4.10;3.70;;;33.70;68.30;;;;;;5031519;28;20471;-95
2022/08/05 11:49:12;;;;;;;4.30;3.43;;;33.80;67.80;;;;;;5007038;28;21030;-94
2022/08/05 11:51:42;;;;;;;3.77;3.47;;;33.80;68.10;;;;;;5029873;28;20462;-91
2022/08/05 11:54:40;;;;;;;3.83;3.40;;;33.70;69.50;;;;;;5014465;28;20446;-96
2022/08/05 11:57:10;;;;;;;7.23;6.53;;;33.80;69.30;;;;;;5013782;28;20437;-96
2022/08/05 11:59:36;;;;;;;4.90;3.77;;;33.90;68.60;;;;;;5018954;28;20478;-91
2022/08/05 12:02:09;;;;;;;3.90;3.57;;;33.80;68.50;;;;;;5039445;28;20408;-90
2022/08/05 12:04:49;;;;;;;10.10;3.70;;;33.90;68.50;;;;;;5013736;28;20198;-91
2022/08/05 12:07:16;;;;;;;4.30;4.00;;;34.00;67.80;;;;;;5015527;28;20505;-91
2022/08/05 12:09:48;;;;;;;4.23;3.83;;;34.00;69.20;;;;;;5036720;28;20530;-95
2022/08/05 12:12:24;;;;;;;4.57;4.17;;;34.00;68.80;;;;;;5016409;28;20821;-96
2022/08/05 12:14:50;;;;;;;3.60;3.30;;;34.00;67.70;;;;;;5010811;28;20438;-92
2022/08/05 12:17:16;;;;;;;4.23;3.83;;;34.00;69.90;;;;;;5036010;28;20415;-95
2022/08/05 12:19:53;;;;;;;4.00;3.70;;;33.90;70.90;;;;;;5018859;28;20439;-95
2022/08/05 12:22:25;;;;;;;3.23;3.00;;;33.90;68.50;;;;;;5011783;28;20442;-96
2022/08/05 12:24:56;;;;;;;3.93;3.53;;;34.00;67.20;;;;;;5017229;28;20777;-96
2022/08/05 12:27:27;;;;;;;5.80;3.77;;;34.00;66.40;;;;;;5016437;28;20485;-92
2022/08/05 12:30:09;;;;;;;8.47;3.37;;;34.00;67.30;;;;;;5015412;28;20451;-91
2022/08/05 12:32:43;;;;;;;4.23;3.93;;;34.00;69.70;;;;;;5016282;28;20490;-91
2022/08/05 12:35:09;;;;;;;4.27;3.97;;;34.00;66.60;;;;;;5019348;28;20515;-91
2022/08/05 12:37:35;;;;;;;4.00;3.67;;;34.00;66.10;;;;;;5019487;28;20478;-92
2022/08/05 12:40:01;;;;;;;3.70;3.40;;;34.10;66.30;;;;;;5012465;28;21032;-92
2022/08/05 12:42:29;;;;;;;4.60;3.30;;;34.10;67.10;;;;;;5023780;28;20463;-94
2022/08/05 12:45:06;;;;;;;4.90;3.90;;;34.20;66.30;;;;;;5021887;28;20198;-91
2022/08/05 12:47:32;;;;;;;3.63;3.30;;;34.20;66.20;;;;;;5021176;28;20940;-91
2022/08/05 12:49:58;;;;;;;4.10;3.80;;;34.20;67.00;;;;;;5021085;28;20533;-91
2022/08/05 12:52:24;;;;;;;5.17;4.03;;;34.20;66.00;;;;;;5009245;28;20217;-96
2022/08/05 12:54:57;;;;;;;5.53;3.67;;;34.30;67.10;;;;;;5025523;28;20423;-96
2022/08/05 12:57:23;;;;;;;4.13;3.83;;;34.30;65.60;;;;;;5019346;28;20182;-91
2022/08/05 12:59:51;;;;;;;4.47;3.70;;;34.20;66.40;;;;;;5019018;28;20455;-96
2022/08/05 13:02:24;;;;;;;3.30;3.10;;;34.20;66.80;;;;;;5023415;28;20605;-91
2022/08/05 13:04:52;;;;;;;3.60;3.30;;;34.20;67.30;;;;;;5016831;28;20439;-96
2022/08/05 13:07:25;;;;;;;4.43;3.60;;;34.30;68.80;;;;;;5019545;28;20466;-92
2022/08/05 13:09:52;;;;;;;4.70;3.40;;;34.20;69.70;;;;;;5019997;28;20439;-91
2022/08/05 13:12:22;;;;;;;3.80;3.50;;;34.20;68.40;;;;;;5016884;28;20774;-91
2022/08/05 13:15:01;;;;;;;3.93;3.60;;;34.20;69.80;;;;;;5036674;28;20960;-96
2022/08/05 13:17:28;;;;;;;3.20;2.90;;;34.20;68.80;;;;;;5031510;28;20442;-96
2022/08/05 13:20:13;;;;;;;3.43;3.13;;;34.10;68.50;;;;;;5025492;28;20502;-93
2022/08/05 13:22:48;;;;;;;4.10;3.70;;;34.10;70.20;;;;;;5030395;28;20427;-96